Terminal Aerodrome Forecast
Issued by NWS Twin Cities, MN

Home | Current Version | Previous Version | Graphics & Text | Print | Product List | Glossary On
Versions: 1 2 3 4 5 6 7 8 9 10 11 12 13
427
FTUS43 KMPX 280520
TAFEAU
TAF
KEAU 280520Z 2806/2906 20005KT P6SM OVC035
     FM280800 VRB02KT 4SM BR BKN005
     FM281000 00000KT 1/2SM FG VV002
     FM281300 15003KT 4SM BR SCT005 BKN012
     FM281700 16005KT P6SM SCT015=

USA.gov is the U.S. government's official web portal to all federal, state and local government web resources and services.